Villalbilla, Spain
Current Conditions -  °F | °C
As of 5:00 PM on Thursday 23 Oct 2014 (Local Time) from LETO Reporting Station
Clear Clear  
Wind Chill: 79°   Ceiling: Unl
Heat Index: 79°   Visibility: 6mi
Dew Point: 43°   Wind: 10mph
Humidity: 28%   Direction: 330°NNW
Pressure: 30.18"   Gusts: NA
Location:  40.43°N, 3.3°W
Report Text: LETO 231500Z 33009KT 290V010 CAVOK 26/06 Q1022 NOSIG
Loading
Personal Weather Stations






























Interactive Weather Map
Tropical Storm Tracking
New forecast layout! Learn more

10-Day Weather Forecast

Advertisements
Track Severe Weather on mobile